Time;durP1;ratioP1;P1;durP2;ratioP2;P2;SDS_P1;SDS_P2;PMS_P1;PMS_P2;Temp;Humidity;BMP_temperature;BMP_pressure;BME280_temperature;BME280_humidity;BME280_pressure;Samples;Min_cycle;Max_cycle;Signal;HPM_P1;HPM_P2
2023/05/18 00:02:05;;;;;;;79.23;7.47;;;9.00;96.70;;;;;;4904078;29;20226;-87
2023/05/18 00:04:35;;;;;;;70.25;6.35;;;8.90;98.20;;;;;;4902808;29;20198;-87
2023/05/18 00:07:03;;;;;;;67.13;6.35;;;9.00;98.00;;;;;;4904281;29;20246;-87
2023/05/18 00:09:30;;;;;;;70.55;6.60;;;9.00;99.20;;;;;;4903156;29;20198;-87
2023/05/18 00:11:56;;;;;;;69.95;6.30;;;8.80;99.90;;;;;;4902922;29;20550;-87
2023/05/18 00:14:22;;;;;;;71.18;5.88;;;8.90;99.90;;;;;;4904474;29;20196;-88
2023/05/18 00:16:48;;;;;;;69.03;6.67;;;8.80;99.10;;;;;;4903742;29;20201;-87
2023/05/18 00:19:14;;;;;;;72.22;5.95;;;8.80;99.80;;;;;;4902912;29;20197;-87
2023/05/18 00:21:45;;;;;;;65.97;5.43;;;8.80;99.90;;;;;;4902354;29;20178;-88
2023/05/18 00:24:11;;;;;;;67.70;6.30;;;8.80;98.70;;;;;;4903804;29;20637;-86
2023/05/18 00:26:43;;;;;;;69.15;5.90;;;8.60;99.90;;;;;;4903098;29;20194;-87
2023/05/18 00:29:09;;;;;;;74.30;7.13;;;8.50;99.90;;;;;;4887244;29;20178;-87
2023/05/18 00:31:37;;;;;;;70.82;7.15;;;8.50;99.90;;;;;;4903384;29;20170;-87
2023/05/18 00:34:07;;;;;;;68.65;5.95;;;8.50;99.90;;;;;;4903240;29;20177;-87
2023/05/18 00:36:33;;;;;;;75.00;7.32;;;8.50;99.90;;;;;;4901706;29;20272;-86
2023/05/18 00:38:59;;;;;;;69.40;6.82;;;8.40;99.90;;;;;;4903116;29;20598;-87
2023/05/18 00:41:26;;;;;;;70.83;7.17;;;8.40;99.90;;;;;;4903005;29;20177;-87
2023/05/18 00:43:52;;;;;;;68.40;7.18;;;8.40;99.90;;;;;;4903312;29;20407;-86
2023/05/18 00:46:18;;;;;;;68.05;6.22;;;8.30;99.90;;;;;;4902134;29;20201;-87
2023/05/18 00:48:44;;;;;;;69.97;7.80;;;8.20;99.90;;;;;;4903167;29;20166;-87
2023/05/18 00:51:11;;;;;;;69.75;7.95;;;8.20;99.90;;;;;;4902560;29;20545;-87
2023/05/18 00:53:37;;;;;;;77.50;7.90;;;8.10;99.90;;;;;;4903413;29;20184;-87
2023/05/18 00:56:04;;;;;;;69.43;7.28;;;8.10;99.90;;;;;;4903303;29;20557;-87
2023/05/18 00:58:30;;;;;;;72.28;7.10;;;8.10;99.90;;;;;;4902037;29;20182;-87
2023/05/18 01:00:56;;;;;;;66.97;7.60;;;8.00;99.90;;;;;;4903199;29;20194;-87
2023/05/18 01:03:25;;;;;;;71.43;7.87;;;8.00;99.90;;;;;;4901808;29;20530;-87
2023/05/18 01:05:54;;;;;;;70.32;7.80;;;8.00;99.90;;;;;;4903495;29;20429;-87
2023/05/18 01:08:25;;;;;;;71.15;7.80;;;8.00;99.90;;;;;;4901723;29;20658;-86
2023/05/18 01:11:04;;;;;;;69.32;7.85;;;8.00;99.90;;;;;;4902810;29;20609;-87
2023/05/18 01:14:02;;;;;;;70.05;7.80;;;8.00;99.90;;;;;;4902885;29;20166;-87
2023/05/18 01:16:33;;;;;;;69.80;7.65;;;7.90;99.90;;;;;;4901532;29;20197;-86
2023/05/18 01:19:17;;;;;;;68.80;7.05;;;7.80;99.90;;;;;;4903617;29;20194;-86
2023/05/18 01:22:15;;;;;;;71.80;7.30;;;7.80;99.90;;;;;;4901815;29;20182;-87
2023/05/18 01:24:55;;;;;;;70.10;7.03;;;7.80;99.90;;;;;;4901926;29;20177;-86
2023/05/18 01:27:23;;;;;;;77.07;7.95;;;7.80;99.90;;;;;;4901612;29;20249;-87
2023/05/18 01:29:50;;;;;;;70.95;7.43;;;7.80;99.90;;;;;;4902927;29;20335;-87
2023/05/18 01:32:20;;;;;;;72.15;7.30;;;7.70;99.90;;;;;;4902837;29;20248;-87
2023/05/18 01:34:47;;;;;;;74.13;7.80;;;7.60;99.90;;;;;;4902635;29;20162;-88
2023/05/18 01:37:13;;;;;;;69.95;6.80;;;7.60;99.90;;;;;;4902838;29;20569;-86
2023/05/18 01:39:39;;;;;;;73.93;7.20;;;7.60;99.90;;;;;;4902941;29;20194;-87
2023/05/18 01:42:14;;;;;;;67.18;5.88;;;7.60;99.90;;;;;;4901912;29;20538;-87
2023/05/18 01:44:45;;;;;;;70.35;7.00;;;7.60;99.90;;;;;;4901099;29;20312;-87
2023/05/18 01:47:16;;;;;;;70.32;6.45;;;7.50;99.90;;;;;;4901172;29;20329;-87
2023/05/18 01:50:00;;;;;;;71.50;8.90;;;7.60;99.90;;;;;;4901768;29;20170;-87
2023/05/18 01:52:31;;;;;;;72.70;7.30;;;7.50;99.90;;;;;;4901475;29;20166;-88
2023/05/18 01:55:02;;;;;;;69.35;7.55;;;7.50;99.90;;;;;;4900887;29;20170;-87
2023/05/18 01:57:30;;;;;;;69.65;7.22;;;7.50;99.90;;;;;;4902167;29;20186;-86
2023/05/18 01:59:58;;;;;;;70.63;8.05;;;7.40;99.90;;;;;;4902338;29;20197;-87
2023/05/18 02:02:25;;;;;;;70.25;7.30;;;7.30;99.90;;;;;;4900815;29;20261;-87
2023/05/18 02:04:51;;;;;;;68.93;6.60;;;7.30;99.90;;;;;;4900549;29;20174;-86
2023/05/18 02:07:17;;;;;;;69.70;8.43;;;7.30;99.90;;;;;;4901242;29;20249;-86
2023/05/18 02:09:45;;;;;;;69.23;8.00;;;7.20;99.90;;;;;;4901181;29;20176;-87
2023/05/18 02:12:11;;;;;;;68.72;7.72;;;7.20;99.90;;;;;;4900233;29;20245;-88
2023/05/18 02:14:37;;;;;;;71.30;6.97;;;7.20;99.90;;;;;;4901860;29;20641;-87
2023/05/18 02:17:05;;;;;;;70.03;8.30;;;7.20;99.90;;;;;;4901777;29;20197;-86
2023/05/18 02:19:32;;;;;;;70.93;7.93;;;7.10;99.90;;;;;;4900433;29;20685;-88
2023/05/18 02:21:58;;;;;;;75.82;8.75;;;7.10;99.90;;;;;;4901742;29;20182;-88
2023/05/18 02:24:23;;;;;;;69.95;8.68;;;7.00;99.90;;;;;;4900330;29;20537;-88
2023/05/18 02:26:50;;;;;;;70.20;10.23;;;7.00;99.90;;;;;;4901744;29;20264;-86
2023/05/18 02:29:16;;;;;;;70.28;11.40;;;7.00;99.90;;;;;;4900414;29;20170;-87
2023/05/18 02:31:42;;;;;;;69.78;11.88;;;7.00;99.90;;;;;;4900250;29;20180;-86
2023/05/18 02:34:08;;;;;;;68.40;11.87;;;6.90;99.90;;;;;;4902045;29;20229;-87
2023/05/18 02:36:38;;;;;;;71.50;11.77;;;6.80;99.90;;;;;;4900338;29;20201;-86
2023/05/18 02:39:05;;;;;;;73.82;12.27;;;6.90;99.90;;;;;;4900285;29;20513;-87
2023/05/18 02:41:32;;;;;;;69.55;10.93;;;6.80;99.90;;;;;;4902233;29;20230;-87
2023/05/18 02:43:58;;;;;;;69.82;8.93;;;6.90;99.90;;;;;;4900965;29;20170;-88
2023/05/18 02:46:24;;;;;;;70.90;10.80;;;6.80;99.90;;;;;;4900584;29;20218;-87
2023/05/18 02:48:49;;;;;;;70.03;12.47;;;6.70;99.90;;;;;;4900663;29;20181;-88
2023/05/18 02:51:15;;;;;;;73.30;14.70;;;6.80;99.90;;;;;;4902180;29;20418;-87
2023/05/18 02:53:42;;;;;;;73.40;12.87;;;6.80;99.90;;;;;;4900353;29;20181;-87
2023/05/18 02:56:09;;;;;;;69.03;9.60;;;6.80;99.90;;;;;;4900674;29;20260;-87
2023/05/18 02:58:34;;;;;;;78.82;11.48;;;6.60;99.90;;;;;;4900392;29;20550;-87
2023/05/18 03:01:02;;;;;;;73.30;9.10;;;6.70;99.90;;;;;;4900304;29;20176;-87
2023/05/18 03:03:28;;;;;;;72.00;9.60;;;6.60;99.90;;;;;;4902123;29;20177;-87
2023/05/18 03:05:54;;;;;;;73.88;10.88;;;6.70;99.90;;;;;;4903591;29;20193;-87
2023/05/18 03:08:21;;;;;;;71.80;12.90;;;6.60;99.90;;;;;;4904520;29;20178;-87
2023/05/18 03:10:48;;;;;;;69.53;12.93;;;6.60;99.90;;;;;;4905581;29;20170;-88
2023/05/18 03:13:13;;;;;;;74.05;15.88;;;6.60;99.90;;;;;;4906180;29;20162;-88
2023/05/18 03:15:39;;;;;;;71.33;14.30;;;6.50;99.90;;;;;;4905759;29;20176;-87
2023/05/18 03:18:05;;;;;;;71.27;12.73;;;6.60;99.90;;;;;;4904919;29;20180;-86
2023/05/18 03:20:31;;;;;;;69.67;9.87;;;6.60;99.90;;;;;;4904494;29;20193;-87
2023/05/18 03:22:57;;;;;;;71.27;12.60;;;6.60;99.90;;;;;;4904220;29;20445;-88
2023/05/18 03:25:24;;;;;;;74.37;13.70;;;6.50;99.90;;;;;;4905947;29;20470;-88
2023/05/18 03:27:51;;;;;;;81.13;12.20;;;6.50;99.90;;;;;;4904381;29;20422;-87
2023/05/18 03:30:18;;;;;;;70.43;13.88;;;6.50;99.90;;;;;;4905910;29;20169;-87
2023/05/18 03:32:46;;;;;;;73.00;14.00;;;6.50;99.90;;;;;;4906134;29;20182;-87
2023/05/18 03:35:11;;;;;;;72.88;18.40;;;6.40;99.90;;;;;;4904358;29;20174;-87
2023/05/18 03:37:37;;;;;;;75.30;17.57;;;6.40;99.90;;;;;;4906024;29;20221;-87
2023/05/18 03:40:12;;;;;;;72.60;16.00;;;6.40;99.90;;;;;;4905401;29;20454;-87
2023/05/18 03:42:41;;;;;;;79.88;16.95;;;6.40;99.90;;;;;;4904856;29;20174;-87
2023/05/18 03:45:08;;;;;;;73.53;19.50;;;6.30;99.90;;;;;;4905588;29;20638;-87
2023/05/18 03:47:35;;;;;;;73.65;19.77;;;6.30;99.90;;;;;;4904158;29;20190;-87
2023/05/18 03:50:01;;;;;;;72.70;17.35;;;6.40;99.90;;;;;;4905533;29;20253;-87
2023/05/18 03:52:28;;;;;;;74.07;18.90;;;6.30;99.90;;;;;;4904576;29;20173;-88
2023/05/18 03:54:55;;;;;;;73.72;26.48;;;6.30;99.90;;;;;;4905808;29;20173;-87
2023/05/18 03:57:21;;;;;;;72.05;19.38;;;6.30;99.90;;;;;;4903925;29;20193;-86
2023/05/18 03:59:47;;;;;;;74.55;19.75;;;6.30;99.90;;;;;;4904059;29;20198;-87
2023/05/18 04:02:15;;;;;;;73.27;19.87;;;6.30;99.90;;;;;;4905253;29;20213;-86
2023/05/18 04:04:44;;;;;;;72.70;16.10;;;6.40;99.90;;;;;;4903758;29;20193;-87
2023/05/18 04:07:11;;;;;;;75.00;19.27;;;6.40;99.90;;;;;;4905906;29;20254;-87
2023/05/18 04:09:38;;;;;;;73.30;25.98;;;6.40;99.90;;;;;;4905146;29;20253;-87
2023/05/18 04:12:04;;;;;;;74.00;23.40;;;6.30;99.90;;;;;;4904853;29;20566;-86
2023/05/18 04:14:34;;;;;;;73.95;22.63;;;6.30;99.90;;;;;;4903702;29;20612;-87
2023/05/18 04:17:03;;;;;;;74.15;23.50;;;6.40;99.90;;;;;;4904489;29;20194;-87
2023/05/18 04:19:33;;;;;;;79.60;25.52;;;6.40;99.90;;;;;;4903413;29;20204;-86
2023/05/18 04:22:03;;;;;;;74.47;22.77;;;6.50;99.90;;;;;;4905053;29;20189;-86
2023/05/18 04:24:31;;;;;;;75.45;26.27;;;6.60;99.90;;;;;;4904681;29;20154;-87
2023/05/18 04:26:58;;;;;;;76.45;23.70;;;6.50;99.90;;;;;;4904586;29;20674;-87
2023/05/18 04:29:24;;;;;;;75.68;24.25;;;6.60;99.90;;;;;;4902876;29;20200;-86
2023/05/18 04:31:58;;;;;;;77.73;24.17;;;6.60;99.90;;;;;;4905628;29;20697;-87
2023/05/18 04:34:25;;;;;;;75.72;22.52;;;6.70;99.90;;;;;;4904381;29;20810;-87
2023/05/18 04:36:53;;;;;;;72.65;20.27;;;6.70;99.90;;;;;;4904644;29;20254;-87
2023/05/18 04:39:19;;;;;;;79.85;17.75;;;6.80;99.90;;;;;;4904989;29;20213;-88
2023/05/18 04:41:45;;;;;;;73.03;15.13;;;6.80;99.90;;;;;;4905042;29;20595;-87
2023/05/18 04:44:12;;;;;;;76.43;24.97;;;7.10;99.90;;;;;;4903835;29;20234;-87
2023/05/18 04:46:39;;;;;;;78.90;25.42;;;7.30;99.90;;;;;;4905216;29;20423;-87
2023/05/18 04:49:05;;;;;;;71.85;12.13;;;7.50;99.90;;;;;;4903905;29;20216;-88
2023/05/18 04:51:35;;;;;;;70.07;7.47;;;7.80;99.90;;;;;;4903085;29;20197;-87
2023/05/18 04:54:02;;;;;;;68.15;6.93;;;8.00;99.90;;;;;;4904636;29;20386;-87
2023/05/18 04:56:28;;;;;;;68.72;6.85;;;8.10;99.90;;;;;;4904230;29;20252;-88
2023/05/18 04:58:58;;;;;;;68.10;7.25;;;8.10;99.90;;;;;;4903605;29;20190;-87
2023/05/18 05:01:24;;;;;;;68.95;7.95;;;8.20;99.90;;;;;;4902381;29;20170;-87
2023/05/18 05:03:50;;;;;;;74.95;8.20;;;8.20;99.90;;;;;;4902322;29;20214;-87
2023/05/18 05:06:15;;;;;;;69.70;7.50;;;8.20;99.90;;;;;;4902781;29;20528;-87
2023/05/18 05:08:41;;;;;;;72.43;7.90;;;8.40;99.90;;;;;;4902402;29;20181;-87
2023/05/18 05:11:07;;;;;;;73.47;7.40;;;8.50;99.90;;;;;;4903312;29;20661;-87
2023/05/18 05:13:34;;;;;;;70.00;7.27;;;8.50;99.90;;;;;;4901472;29;20200;-87
2023/05/18 05:16:00;;;;;;;70.03;7.30;;;8.50;99.90;;;;;;4901369;29;20193;-87
2023/05/18 05:18:26;;;;;;;70.28;7.97;;;8.60;99.90;;;;;;4901769;29;20182;-87
2023/05/18 05:20:53;;;;;;;70.90;7.30;;;8.60;99.90;;;;;;4901718;29;20193;-87
2023/05/18 05:23:18;;;;;;;72.00;8.02;;;8.80;99.90;;;;;;4900350;29;20186;-87
2023/05/18 05:25:44;;;;;;;68.80;7.60;;;8.80;99.90;;;;;;4901858;29;20562;-87
2023/05/18 05:28:10;;;;;;;70.50;8.33;;;8.80;99.90;;;;;;4900815;29;20173;-88
2023/05/18 05:30:36;;;;;;;70.57;7.83;;;8.80;99.90;;;;;;4901489;29;20170;-87
2023/05/18 05:33:01;;;;;;;68.60;7.60;;;8.90;99.90;;;;;;4901716;29;20205;-87
2023/05/18 05:35:27;;;;;;;76.73;8.30;;;8.90;99.90;;;;;;4900692;29;20534;-86
2023/05/18 05:37:53;;;;;;;75.57;9.17;;;8.80;99.90;;;;;;4900468;29;20174;-87
2023/05/18 05:40:19;;;;;;;70.93;7.93;;;8.90;99.90;;;;;;4901603;29;20549;-87
2023/05/18 05:42:44;;;;;;;69.47;7.70;;;9.00;99.90;;;;;;4901900;29;20166;-87
2023/05/18 05:45:13;;;;;;;73.37;8.43;;;9.10;99.90;;;;;;4901299;29;20409;-87
2023/05/18 05:47:39;;;;;;;73.10;7.85;;;9.10;99.90;;;;;;4900741;29;20252;-87
2023/05/18 05:50:05;;;;;;;76.07;7.40;;;9.20;99.90;;;;;;4900681;29;20177;-87
2023/05/18 05:52:31;;;;;;;73.07;7.22;;;9.30;99.90;;;;;;4901065;29;20166;-86
2023/05/18 05:54:56;;;;;;;73.10;6.40;;;9.40;96.10;;;;;;4901607;29;20269;-87
2023/05/18 05:57:22;;;;;;;72.77;6.80;;;9.50;97.60;;;;;;4901754;29;20571;-87
2023/05/18 05:59:48;;;;;;;68.77;6.57;;;9.60;97.20;;;;;;4900256;29;20257;-87
2023/05/18 06:02:13;;;;;;;72.10;5.93;;;9.50;95.50;;;;;;4900537;29;20201;-87
2023/05/18 06:04:39;;;;;;;70.97;7.13;;;9.70;91.40;;;;;;4902519;29;20173;-86
2023/05/18 06:07:05;;;;;;;72.60;7.00;;;9.80;83.10;;;;;;4900933;29;20225;-87
2023/05/18 06:09:31;;;;;;;72.15;6.65;;;9.80;79.80;;;;;;4901071;29;20516;-87
2023/05/18 06:11:56;;;;;;;70.77;7.13;;;9.80;79.80;;;;;;4900917;29;20226;-87
2023/05/18 06:14:22;;;;;;;72.97;5.87;;;9.70;67.70;;;;;;4901163;29;20170;-87
2023/05/18 06:16:48;;;;;;;66.90;6.00;;;9.70;66.90;;;;;;4900315;29;20197;-86
2023/05/18 06:19:13;;;;;;;69.93;6.60;;;9.60;58.40;;;;;;4900287;29;20201;-87
2023/05/18 06:21:39;;;;;;;71.30;6.00;;;9.70;57.50;;;;;;4901752;29;20261;-86
2023/05/18 06:24:05;;;;;;;69.13;6.33;;;9.70;51.00;;;;;;4900253;29;20166;-87
2023/05/18 06:26:31;;;;;;;71.57;6.07;;;9.60;53.40;;;;;;4900048;29;20201;-87
2023/05/18 06:28:57;;;;;;;73.75;6.90;;;9.80;55.90;;;;;;4901542;29;20170;-86
2023/05/18 06:31:23;;;;;;;69.10;6.43;;;9.80;51.70;;;;;;4900410;29;20241;-86
2023/05/18 06:33:49;;;;;;;70.27;6.60;;;9.90;44.70;;;;;;4899956;29;21021;-88
2023/05/18 06:36:15;;;;;;;70.83;7.00;;;10.00;42.50;;;;;;4900429;29;20501;-87
2023/05/18 06:38:41;;;;;;;73.25;6.47;;;10.10;44.30;;;;;;4900187;29;20556;-87
2023/05/18 06:41:07;;;;;;;78.40;6.70;;;10.10;41.80;;;;;;4899886;29;20242;-87
2023/05/18 06:43:33;;;;;;;72.40;6.97;;;10.10;33.70;;;;;;4900478;29;20166;-88
2023/05/18 06:45:58;;;;;;;67.70;6.83;;;10.10;33.30;;;;;;4900496;29;20441;-86
2023/05/18 06:48:27;;;;;;;72.00;6.47;;;10.30;40.20;;;;;;4901604;29;20176;-86
2023/05/18 06:50:53;;;;;;;69.50;5.97;;;10.40;43.80;;;;;;4901266;29;20178;-87
2023/05/18 06:53:19;;;;;;;67.38;5.68;;;10.50;36.90;;;;;;4900035;29;20188;-87
2023/05/18 06:55:45;;;;;;;68.03;6.35;;;10.50;29.50;;;;;;4901327;29;20185;-86
2023/05/18 06:58:11;;;;;;;73.65;6.60;;;10.40;26.70;;;;;;4901648;29;20170;-87
2023/05/18 07:00:38;;;;;;;70.65;6.45;;;10.50;28.70;;;;;;4901287;29;20704;-86
2023/05/18 07:03:03;;;;;;;74.60;6.05;;;10.60;21.30;;;;;;4900992;29;20177;-87
2023/05/18 07:05:29;;;;;;;71.53;6.33;;;10.60;19.30;;;;;;4901277;29;20644;-87
2023/05/18 07:07:55;;;;;;;72.20;5.40;;;10.60;16.00;;;;;;4901952;29;20193;-86
2023/05/18 07:10:21;;;;;;;70.03;4.80;;;10.60;1.00;;;;;;4900282;29;20265;-86
2023/05/18 07:12:47;;;;;;;66.93;4.85;;;10.60;1.00;;;;;;4901131;29;20169;-86
2023/05/18 07:15:13;;;;;;;70.95;5.20;;;10.60;1.00;;;;;;4899861;29;20178;-86
2023/05/18 07:17:41;;;;;;;73.33;4.70;;;10.70;1.00;;;;;;4900779;29;20201;-87
2023/05/18 07:20:07;;;;;;;67.32;4.90;;;10.70;1.00;;;;;;4899904;29;20460;-87
2023/05/18 07:22:34;;;;;;;70.15;5.50;;;10.90;1.00;;;;;;4899829;29;20268;-87
2023/05/18 07:25:00;;;;;;;83.45;7.65;;;10.90;1.00;;;;;;4900230;29;20591;-88
2023/05/18 07:27:28;;;;;;;70.80;5.20;;;10.90;1.00;;;;;;4900594;29;20249;-87
2023/05/18 07:29:54;;;;;;;75.30;6.47;;;11.00;1.00;;;;;;4901186;29;20630;-88
2023/05/18 07:32:20;;;;;;;69.10;5.00;;;11.10;1.00;;;;;;4902193;29;20174;-87
2023/05/18 07:34:46;;;;;;;68.50;5.60;;;11.10;1.00;;;;;;4901309;29;20411;-87
2023/05/18 07:37:12;;;;;;;70.73;6.00;;;11.20;1.00;;;;;;4898948;29;20197;-87
2023/05/18 07:39:38;;;;;;;72.95;5.80;;;11.20;1.00;;;;;;4899463;29;20201;-87
2023/05/18 07:42:05;;;;;;;75.53;4.87;;;11.20;1.00;;;;;;4900523;29;20171;-86
2023/05/18 07:44:31;;;;;;;72.07;5.25;;;11.20;1.00;;;;;;4900687;29;20176;-87
2023/05/18 07:46:56;;;;;;;72.97;5.18;;;11.20;1.00;;;;;;4901278;29;20269;-87
2023/05/18 07:49:22;;;;;;;69.97;5.17;;;11.30;1.00;;;;;;4901718;29;20166;-87
2023/05/18 07:51:49;;;;;;;69.27;5.10;;;11.30;1.00;;;;;;4901122;29;20364;-88
2023/05/18 07:54:15;;;;;;;73.03;6.68;;;11.40;1.00;;;;;;4905165;29;20190;-87
2023/05/18 07:56:40;;;;;;;70.30;5.77;;;11.50;1.00;;;;;;4905324;29;20193;-86
2023/05/18 07:59:08;;;;;;;68.97;5.70;;;11.50;1.00;;;;;;4903722;29;20201;-86
2023/05/18 08:01:34;;;;;;;74.55;5.88;;;11.50;1.00;;;;;;4905682;29;20421;-86
2023/05/18 08:04:00;;;;;;;66.97;6.63;;;11.40;1.00;;;;;;4903780;29;20583;-88
2023/05/18 08:06:25;;;;;;;69.32;6.35;;;11.50;1.00;;;;;;4903751;29;20190;-86
2023/05/18 08:08:51;;;;;;;68.43;6.17;;;11.60;1.00;;;;;;4904591;29;20170;-87
2023/05/18 08:11:17;;;;;;;68.57;5.87;;;11.70;1.00;;;;;;4904783;29;20174;-87
2023/05/18 08:13:43;;;;;;;69.47;5.90;;;11.70;1.00;;;;;;4903407;29;20273;-87
2023/05/18 08:16:08;;;;;;;68.53;6.60;;;11.70;1.00;;;;;;4905249;29;20194;-86
2023/05/18 08:18:34;;;;;;;72.10;6.80;;;11.80;1.00;;;;;;4904407;29;20515;-86
2023/05/18 08:21:02;;;;;;;73.10;6.40;;;11.90;1.00;;;;;;4904330;29;20254;-87
2023/05/18 08:23:28;;;;;;;68.80;6.85;;;11.90;1.00;;;;;;4904548;29;20181;-87
2023/05/18 08:25:55;;;;;;;69.33;6.30;;;12.00;1.00;;;;;;4904034;29;20679;-86
2023/05/18 08:28:22;;;;;;;70.05;5.10;;;12.10;1.00;;;;;;4903806;29;20170;-87
2023/05/18 08:30:47;;;;;;;70.45;5.60;;;12.20;1.00;;;;;;4905205;29;20166;-87
2023/05/18 08:33:13;;;;;;;73.53;6.57;;;12.10;1.00;;;;;;4905132;29;20646;-87
2023/05/18 08:35:39;;;;;;;73.73;6.03;;;12.10;1.00;;;;;;4903365;29;20177;-87
2023/05/18 08:38:04;;;;;;;71.80;5.67;;;12.10;1.00;;;;;;4904807;29;20721;-87
2023/05/18 08:40:58;;;;;;;66.30;5.03;;;12.10;1.00;;;;;;4905214;29;20218;-87
2023/05/18 08:43:31;;;;;;;70.38;6.18;;;12.30;1.00;;;;;;4905924;29;20178;-87
2023/05/18 08:46:19;;;;;;;71.33;6.70;;;12.30;1.00;;;;;;4904922;29;20200;-87
2023/05/18 08:48:47;;;;;;;71.45;5.82;;;12.40;1.00;;;;;;4891831;29;20415;-88
2023/05/18 08:51:18;;;;;;;71.77;7.63;;;12.50;1.00;;;;;;4904982;29;20178;-87
2023/05/18 08:53:47;;;;;;;69.60;6.13;;;12.50;1.00;;;;;;4903923;29;20449;-87
2023/05/18 08:56:14;;;;;;;71.38;5.45;;;12.60;1.00;;;;;;4903586;29;20210;-87
2023/05/18 08:58:46;;;;;;;70.88;6.57;;;12.70;1.00;;;;;;4904719;29;20176;-87
2023/05/18 09:01:13;;;;;;;71.80;5.78;;;12.80;1.00;;;;;;4905798;29;20198;-86
2023/05/18 09:03:40;;;;;;;69.75;5.38;;;12.90;1.00;;;;;;4904083;29;20173;-87
2023/05/18 09:06:07;;;;;;;71.95;5.75;;;13.00;1.00;;;;;;4888218;29;20205;-87
2023/05/18 09:08:33;;;;;;;71.97;5.28;;;13.00;1.00;;;;;;4904792;29;20166;-88
2023/05/18 09:11:01;;;;;;;68.78;5.40;;;13.10;1.00;;;;;;4903502;29;20178;-86
2023/05/18 09:13:30;;;;;;;69.10;5.87;;;13.30;1.00;;;;;;4904144;29;20181;-87
2023/05/18 09:15:55;;;;;;;72.40;5.80;;;13.40;1.00;;;;;;4905573;29;20513;-87
2023/05/18 09:18:21;;;;;;;71.23;5.20;;;13.60;1.00;;;;;;4904264;29;20426;-86
2023/05/18 09:20:47;;;;;;;67.77;4.77;;;13.60;1.00;;;;;;4903357;29;20205;-87
2023/05/18 09:26:27;;;;;;;69.70;4.97;;;13.70;1.00;;;;;;4806708;27;20253;-84
2023/05/18 09:32:59;;;;;;;69.03;4.93;;;14.20;1.00;;;;;;4814462;29;20486;-85
2023/05/18 09:38:06;;;;;;;71.63;5.30;;;14.60;1.00;;;;;;4903103;29;20503;-85
2023/05/18 09:40:51;;;;;;;67.73;6.40;;;14.90;1.00;;;;;;4904579;29;20554;-83
2023/05/18 09:50:55;;;;;;;71.03;5.13;;;15.40;1.00;;;;;;4889810;29;20410;-83
2023/05/18 09:53:30;;;;;;;69.37;5.43;;;15.50;1.00;;;;;;4903081;29;20425;-83
2023/05/18 09:59:48;;;;;;;;;;;;;;;;;;;;;
2023/05/18 10:03:22;;;;;;;69.90;7.37;;;16.50;1.00;;;;;;4902908;29;20494;-82
2023/05/18 10:07:11;;;;;;;72.80;7.60;;;16.70;1.00;;;;;;4956193;23;20484;-82
2023/05/18 10:09:40;;;;;;;69.80;9.07;;;16.30;1.00;;;;;;4867982;29;21072;-85
2023/05/18 10:13:01;;;;;;;69.03;9.10;;;16.20;1.00;;;;;;4902732;29;20409;-84
2023/05/18 10:20:16;;;;;;;72.40;7.67;;;15.70;1.00;;;;;;4902677;29;20488;-83
2023/05/18 10:26:46;;;;;;;70.53;6.97;;;16.60;1.00;;;;;;4062016;27;20572;-84
2023/05/18 10:29:10;;;;;;;71.17;8.33;;;16.30;1.00;;;;;;4825468;29;20430;-84
2023/05/18 10:32:14;;;;;;;69.90;8.10;;;16.50;1.00;;;;;;4882888;29;20448;-84
2023/05/18 10:45:54;;;;;;;67.80;4.33;;;18.30;1.00;;;;;;4789048;30;20481;-84
2023/05/18 10:49:00;;;;;;;75.40;4.63;;;18.80;1.00;;;;;;4791109;30;20458;-84
2023/05/18 10:52:03;;;;;;;70.87;3.97;;;19.00;1.00;;;;;;4790628;29;20477;-84
2023/05/18 10:55:06;;;;;;;;;;;;;;;;;;;;;
2023/05/18 10:58:13;;;;;;;69.70;3.93;;;17.90;1.00;;;;;;4844253;29;20428;-83
2023/05/18 11:01:22;;;;;;;70.00;4.00;;;17.70;1.00;;;;;;4844877;29;20460;-82
2023/05/18 11:04:28;;;;;;;73.37;4.10;;;17.80;1.00;;;;;;4877485;29;20424;-83
2023/05/18 11:16:27;;;;;;;70.47;4.50;;;17.80;1.00;;;;;;4904814;23;20487;-82
2023/05/18 11:19:16;;;;;;;68.70;4.00;;;17.80;1.00;;;;;;4873287;29;20471;-84
2023/05/18 11:22:26;;;;;;;71.57;4.03;;;17.90;1.00;;;;;;4881933;29;20463;-83
2023/05/18 11:28:57;;;;;;;72.80;4.30;;;17.40;1.00;;;;;;4830699;29;20840;-83
2023/05/18 11:31:55;;;;;;;68.30;3.40;;;17.40;1.00;;;;;;4834126;29;20525;-82
2023/05/18 11:34:48;;;;;;;73.57;4.30;;;17.60;1.00;;;;;;4883013;29;20449;-82
2023/05/18 11:37:45;;;;;;;73.27;3.93;;;17.80;1.00;;;;;;4885005;29;20795;-82
2023/05/18 11:48:04;;;;;;;73.20;4.33;;;18.90;1.00;;;;;;4829013;29;20424;-82
2023/05/18 11:50:56;;;;;;;69.17;4.03;;;19.10;1.00;;;;;;4847535;29;20489;-82
2023/05/18 11:53:52;;;;;;;68.87;3.80;;;19.30;1.00;;;;;;4828089;29;20432;-82
2023/05/18 11:57:16;;;;;;;;;;;;;;;;;;;;;
2023/05/18 12:00:01;;;;;;;;;;;;;;;;;;;;;
2023/05/18 12:06:36;;;;;;;71.77;6.60;;;21.00;1.00;;;;;;4828494;29;20453;-82
2023/05/18 12:09:18;;;;;;;70.07;4.60;;;20.60;1.00;;;;;;4829183;29;20428;-82
2023/05/18 12:11:56;;;;;;;74.07;7.10;;;19.90;1.00;;;;;;4841155;29;20445;-83
2023/05/18 12:14:46;;;;;;;69.37;6.00;;;19.70;1.00;;;;;;4886656;29;20487;-82
2023/05/18 12:17:31;;;;;;;72.17;4.97;;;19.50;1.00;;;;;;4886132;29;20454;-82
2023/05/18 12:20:29;;;;;;;70.07;6.20;;;19.70;1.00;;;;;;4886167;29;20462;-82
2023/05/18 12:23:35;;;;;;;77.60;7.47;;;20.10;1.00;;;;;;4884996;29;20413;-83
2023/05/18 12:26:59;;;;;;;;;;;;;;;;;;;;;
2023/05/18 12:29:46;;;;;;;72.67;5.80;;;20.50;1.00;;;;;;4885999;29;20474;-83
2023/05/18 12:38:08;;;;;;;71.90;7.73;;;20.40;1.00;;;;;;4933420;23;20488;-83
2023/05/18 12:41:16;;;;;;;71.23;6.80;;;20.50;1.00;;;;;;4905157;29;20434;-83
2023/05/18 12:44:31;;;;;;;73.10;7.07;;;20.40;1.00;;;;;;4903985;29;20759;-83
2023/05/18 12:47:00;;;;;;;72.40;6.80;;;20.30;1.00;;;;;;4895421;29;20444;-82
2023/05/18 12:49:36;;;;;;;71.97;7.60;;;20.40;1.00;;;;;;4904545;29;20415;-83
2023/05/18 12:52:40;;;;;;;70.70;7.23;;;20.50;1.00;;;;;;4904605;29;20425;-82
2023/05/18 12:55:50;;;;;;;72.50;8.40;;;20.30;1.00;;;;;;4891586;29;20424;-82
2023/05/18 12:58:43;;;;;;;69.97;6.30;;;20.10;1.00;;;;;;4900256;29;20952;-82
2023/05/18 13:01:23;;;;;;;73.37;7.60;;;20.30;1.00;;;;;;4904348;29;20450;-82
2023/05/18 13:07:48;;;;;;;74.90;7.33;;;20.90;1.00;;;;;;4894369;29;20872;-82
2023/05/18 13:10:53;;;;;;;75.37;8.10;;;20.90;1.00;;;;;;4896277;29;20419;-82
2023/05/18 13:13:19;;;;;;;75.97;6.97;;;20.80;1.00;;;;;;4880044;29;20466;-82
2023/05/18 13:16:32;;;;;;;71.07;7.33;;;20.70;1.00;;;;;;4902643;29;20422;-82
2023/05/18 13:19:35;;;;;;;69.63;7.20;;;20.80;1.00;;;;;;4871080;29;20185;-83
2023/05/18 13:25:39;;;;;;;74.67;5.77;;;21.50;1.00;;;;;;4845297;29;20519;-82
2023/05/18 13:28:23;;;;;;;69.27;5.67;;;21.30;1.00;;;;;;4900485;29;20807;-82
2023/05/18 13:31:23;;;;;;;75.00;5.57;;;21.00;1.00;;;;;;4902689;29;20952;-82
2023/05/18 13:34:16;;;;;;;71.20;6.17;;;20.80;1.00;;;;;;4903114;29;20424;-82
2023/05/18 13:37:04;;;;;;;72.53;5.83;;;20.70;1.00;;;;;;4904177;29;20445;-82
2023/05/18 13:39:41;;;;;;;71.73;5.77;;;21.10;1.00;;;;;;4896889;29;20455;-82
2023/05/18 13:42:09;;;;;;;71.40;4.57;;;21.40;1.00;;;;;;4903104;29;20492;-82
2023/05/18 13:44:56;;;;;;;68.60;4.53;;;21.70;1.00;;;;;;4904018;29;20410;-82
2023/05/18 13:47:24;;;;;;;71.77;3.80;;;21.70;1.00;;;;;;4904389;29;20434;-83
2023/05/18 13:49:50;;;;;;;71.93;4.87;;;21.90;1.00;;;;;;4903297;29;20505;-82
2023/05/18 13:52:16;;;;;;;75.57;4.10;;;22.00;1.00;;;;;;4904747;29;20446;-83
2023/05/18 13:54:41;;;;;;;70.47;4.80;;;22.30;1.00;;;;;;4902998;29;20174;-82
2023/05/18 13:57:10;;;;;;;73.57;5.17;;;22.40;1.00;;;;;;4903584;29;20265;-83
2023/05/18 13:59:36;;;;;;;72.73;6.10;;;21.90;1.00;;;;;;4904646;29;20658;-83
2023/05/18 14:02:01;;;;;;;71.77;6.47;;;21.40;1.00;;;;;;4904119;29;20466;-83
2023/05/18 14:04:27;;;;;;;72.07;8.17;;;21.00;1.00;;;;;;4903754;29;20173;-83
2023/05/18 14:06:57;;;;;;;75.30;8.43;;;20.90;1.00;;;;;;4909256;23;20222;-83
2023/05/18 14:09:42;;;;;;;72.23;8.20;;;20.90;1.00;;;;;;4903859;29;20212;-82
2023/05/18 14:12:27;;;;;;;73.60;8.10;;;20.60;1.00;;;;;;4904516;29;20386;-83
2023/05/18 14:15:01;;;;;;;77.43;8.30;;;20.50;1.00;;;;;;4903406;29;20747;-83
2023/05/18 14:17:32;;;;;;;72.07;7.97;;;20.60;1.00;;;;;;4901484;29;20493;-83
2023/05/18 14:20:28;;;;;;;79.37;8.47;;;20.80;1.00;;;;;;4901742;29;20474;-82
2023/05/18 14:23:11;;;;;;;71.77;7.80;;;21.20;1.00;;;;;;4903153;29;20394;-83
2023/05/18 14:25:44;;;;;;;71.60;7.23;;;21.40;1.00;;;;;;4902664;29;20383;-82
2023/05/18 14:35:59;;;;;;;;;;;;;;;;;;;;;
2023/05/18 14:38:51;;;;;;;72.00;5.60;;;21.80;1.00;;;;;;4902069;29;20981;-83
2023/05/18 14:41:17;;;;;;;74.23;5.90;;;21.80;1.00;;;;;;4903137;29;20405;-82
2023/05/18 14:44:18;;;;;;;71.97;7.10;;;21.80;1.00;;;;;;4902061;29;20442;-82
2023/05/18 14:46:52;;;;;;;74.07;4.50;;;22.00;1.00;;;;;;4902726;29;20194;-82